Tucson, AZ

1:42 PM MST on March 03, 2015 (GMT -0700)
Ryan | Change Station
CLOSE
Current Station
Airport
Location: Tucson,
Elevation: 2418 ft
Nearby Weather Stations

Elev 2418 ft 32.14 °N, 111.17 °W | Updated 57 minutes ago

Clear
Clear
61 °F
Feels Like 61 °F
N
10
Wind Variable Wind from West
Gusts mph

Today
High -- | Low -- °F
--% Chance of Precip.
Yesterday
High -- | Low -- °F
Precip. -- in
6:49 AM 6:22 PM
Waxing Gibbous, 97% visible
Pressure 29.92 in
Visibility 10.0 miles
Clouds
Dew Point 37 °F
Humidity 42%
Rainfall 0.00 in
Snow Depth Not available.
UV Not available.
Pollen 7.60 out of 12
Air Quality Not available.
Flu Activity Not available.
METAR KRYN 031945Z 28009KT 10SM 16/03 A2992

More Conditions Fewer Conditions

Pressure 29.92 in
Visibility 10.0 miles
Clouds
Dew Point 37 °F
Humidity 42%
Rainfall 0.00 in
Snow Depth Not available.
UV Not available.
Pollen 7.60 out of 12
Air Quality Not available.
Flu Activity Not available.
METAR KRYN 031945Z 28009KT 10SM 16/03 A2992

More Conditions Fewer Conditions

10-Day Weather Forecast

Almanac

Astronomy

Mar. 03, 2015 Rise Set
Actual Time
Civil Twilight
Nautical Twilight
Astronomical Twilight
Moon
Length of Visible Light
Length of Day
Tomorrow will be .
, % of the Moon is Illuminated

Today's Extremes

State Highs State Lows

Community

WunderPhotos

Upload Photos

1,802,246 photos uploaded!

WunderBlogs® & News

Nearby

Air Quality

  Air Quality AQ Index Pollutant
Not available.

Snow Depth

Station Depth Elevation

Earthquake Activity

City Distance Mag. Time & Date
Minimum magnitude displayed is 2.5.

Coastal Water Temperatures

Place Temperature

Nearby Weather Stations